createdAt,value
2023-05-13T00:00:39.360Z,1023.63
2023-05-13T00:01:39.374Z,1023.63
2023-05-13T00:02:39.479Z,1023.6
2023-05-13T00:03:39.413Z,1023.59
2023-05-13T00:04:39.356Z,1023.61
2023-05-13T00:05:39.399Z,1023.59
2023-05-13T00:06:39.422Z,1023.6
2023-05-13T00:07:39.363Z,1023.58
2023-05-13T00:08:39.389Z,1023.58
2023-05-13T00:09:39.386Z,1023.57
2023-05-13T00:10:39.437Z,1023.57
2023-05-13T00:11:39.372Z,1023.53
2023-05-13T00:12:39.363Z,1023.5
2023-05-13T00:13:39.358Z,1023.51
2023-05-13T00:14:39.378Z,1023.49
2023-05-13T00:15:39.368Z,1023.47
2023-05-13T00:16:39.409Z,1023.46
2023-05-13T00:17:39.386Z,1023.47
2023-05-13T00:18:39.376Z,1023.49
2023-05-13T00:19:39.365Z,1023.45
2023-05-13T00:20:39.365Z,1023.48
2023-05-13T00:21:39.365Z,1023.48
2023-05-13T00:22:39.367Z,1023.47
2023-05-13T00:23:39.380Z,1023.49
2023-05-13T00:24:39.408Z,1023.49
2023-05-13T00:25:39.370Z,1023.5
2023-05-13T00:26:39.364Z,1023.47
2023-05-13T00:27:39.365Z,1023.49
2023-05-13T00:28:39.388Z,1023.49
2023-05-13T00:29:39.365Z,1023.52
2023-05-13T00:30:39.380Z,1023.51
2023-05-13T00:31:39.452Z,1023.5
2023-05-13T00:32:39.411Z,1023.52
2023-05-13T00:33:39.392Z,1023.52
2023-05-13T00:34:39.356Z,1023.56
2023-05-13T00:35:39.368Z,1023.53
2023-05-13T00:36:39.364Z,1023.53
2023-05-13T00:37:39.396Z,1023.52
2023-05-13T00:38:39.384Z,1023.51
2023-05-13T00:39:39.356Z,1023.51
2023-05-13T00:40:39.367Z,1023.51
2023-05-13T00:41:39.358Z,1023.56
2023-05-13T00:42:39.365Z,1023.53
2023-05-13T00:43:39.382Z,1023.54
2023-05-13T00:44:39.363Z,1023.51
2023-05-13T00:45:39.409Z,1023.54
2023-05-13T00:46:39.376Z,1023.53
2023-05-13T00:47:39.398Z,1023.53
2023-05-13T00:48:39.424Z,1023.56
2023-05-13T00:49:39.370Z,1023.56
2023-05-13T00:50:39.352Z,1023.6
2023-05-13T00:51:39.367Z,1023.58
2023-05-13T00:52:39.367Z,1023.56
2023-05-13T00:53:39.376Z,1023.6
2023-05-13T00:54:39.362Z,1023.59
2023-05-13T00:55:39.356Z,1023.6
2023-05-13T00:56:39.358Z,1023.57
2023-05-13T00:57:39.364Z,1023.63
2023-05-13T00:58:39.384Z,1023.67
2023-05-13T00:59:39.360Z,1023.64
2023-05-13T01:00:39.379Z,1023.64
2023-05-13T01:01:39.405Z,1023.67
2023-05-13T01:02:39.494Z,1023.67
2023-05-13T01:03:39.442Z,1023.67
2023-05-13T01:04:39.362Z,1023.64
2023-05-13T01:05:39.375Z,1023.65
2023-05-13T01:06:39.368Z,1023.67
2023-05-13T01:07:39.365Z,1023.65
2023-05-13T01:08:39.373Z,1023.68
2023-05-13T01:09:39.371Z,1023.7
2023-05-13T01:10:39.366Z,1023.68
2023-05-13T01:11:39.363Z,1023.71
2023-05-13T01:12:39.350Z,1023.72
2023-05-13T01:13:39.382Z,1023.74
2023-05-13T01:14:39.357Z,1023.72
2023-05-13T01:15:39.369Z,1023.74
2023-05-13T01:16:39.429Z,1023.69
2023-05-13T01:17:39.391Z,1023.68
2023-05-13T01:18:39.387Z,1023.67
2023-05-13T01:19:39.363Z,1023.69
2023-05-13T01:20:39.361Z,1023.69
2023-05-13T01:21:39.358Z,1023.72
2023-05-13T01:22:39.360Z,1023.68
2023-05-13T01:23:39.391Z,1023.73
2023-05-13T01:24:39.395Z,1023.7
2023-05-13T01:25:39.365Z,1023.72
2023-05-13T01:26:39.344Z,1023.69
2023-05-13T01:27:39.368Z,1023.68
2023-05-13T01:28:39.383Z,1023.68
2023-05-13T01:29:39.362Z,1023.71
2023-05-13T01:30:39.367Z,1023.7
2023-05-13T01:31:39.431Z,1023.69
2023-05-13T01:32:39.454Z,1023.68
2023-05-13T01:33:39.388Z,1023.68
2023-05-13T01:34:39.357Z,1023.65
2023-05-13T01:35:39.368Z,1023.67
2023-05-13T01:36:39.364Z,1023.69
2023-05-13T01:37:39.355Z,1023.7
2023-05-13T01:38:39.368Z,1023.69
2023-05-13T01:39:39.347Z,1023.64
2023-05-13T01:40:39.612Z,1023.68
2023-05-13T01:41:39.354Z,1023.68
2023-05-13T01:42:39.368Z,1023.75
2023-05-13T01:43:39.385Z,1023.74
2023-05-13T01:44:39.359Z,1023.71
2023-05-13T01:45:39.366Z,1023.71
2023-05-13T01:46:39.442Z,1023.72
2023-05-13T01:47:39.427Z,1023.76
2023-05-13T01:48:39.374Z,1023.76
2023-05-13T01:49:39.358Z,1023.76
2023-05-13T01:50:39.365Z,1023.75
2023-05-13T01:51:39.350Z,1023.73
2023-05-13T01:52:39.363Z,1023.74
2023-05-13T01:53:39.373Z,1023.73
2023-05-13T01:54:39.371Z,1023.7
2023-05-13T01:55:39.371Z,1023.72
2023-05-13T01:56:39.365Z,1023.7
2023-05-13T01:57:39.358Z,1023.71
2023-05-13T01:58:39.375Z,1023.71
2023-05-13T01:59:39.354Z,1023.67
2023-05-13T02:00:39.385Z,1023.71
2023-05-13T02:01:39.396Z,1023.7
2023-05-13T02:02:39.530Z,1023.72
2023-05-13T02:03:39.480Z,1023.72
2023-05-13T02:04:39.357Z,1023.73
2023-05-13T02:05:39.363Z,1023.72
2023-05-13T02:06:39.350Z,1023.74
2023-05-13T02:07:39.378Z,1023.75
2023-05-13T02:08:39.399Z,1023.75
2023-05-13T02:09:39.358Z,1023.72
2023-05-13T02:10:39.357Z,1023.73
2023-05-13T02:11:39.359Z,1023.7
2023-05-13T02:12:39.364Z,1023.67
2023-05-13T02:13:39.391Z,1023.73
2023-05-13T02:14:39.356Z,1023.74
2023-05-13T02:15:39.365Z,1023.76
2023-05-13T02:16:39.376Z,1023.78
2023-05-13T02:17:39.409Z,1023.81
2023-05-13T02:18:39.424Z,1023.77
2023-05-13T02:19:39.354Z,1023.78
2023-05-13T02:20:39.366Z,1023.8
2023-05-13T02:21:39.369Z,1023.76
2023-05-13T02:22:39.357Z,1023.74
2023-05-13T02:23:39.381Z,1023.78
2023-05-13T02:24:39.364Z,1023.83
2023-05-13T02:25:39.356Z,1023.77
2023-05-13T02:26:39.365Z,1023.85
2023-05-13T02:27:39.362Z,1023.78
2023-05-13T02:28:39.383Z,1023.78
2023-05-13T02:29:39.362Z,1023.81
2023-05-13T02:30:39.368Z,1023.84
2023-05-13T02:31:39.451Z,1023.8
2023-05-13T02:32:39.371Z,1023.81
2023-05-13T02:33:39.372Z,1023.83
2023-05-13T02:34:39.361Z,1023.8
2023-05-13T02:35:39.360Z,1023.76
2023-05-13T02:36:39.347Z,1023.81
2023-05-13T02:37:39.357Z,1023.81
2023-05-13T02:38:39.372Z,1023.83
2023-05-13T02:39:39.363Z,1023.75
2023-05-13T02:40:39.367Z,1023.81
2023-05-13T02:41:39.356Z,1023.77
2023-05-13T02:42:39.363Z,1023.77
2023-05-13T02:43:39.377Z,1023.78
2023-05-13T02:44:39.365Z,1023.81
2023-05-13T02:45:39.403Z,1023.85
2023-05-13T02:46:39.389Z,1023.81
2023-05-13T02:47:39.426Z,1023.83
2023-05-13T02:48:39.380Z,1023.84
2023-05-13T02:49:39.369Z,1023.83
2023-05-13T02:50:39.372Z,1023.84
2023-05-13T02:51:39.389Z,1023.84
2023-05-13T02:52:39.370Z,1023.82
2023-05-13T02:53:39.379Z,1023.85
2023-05-13T02:54:39.390Z,1023.87
2023-05-13T02:55:39.355Z,1023.89
2023-05-13T02:56:39.354Z,1023.88
2023-05-13T02:57:39.372Z,1023.88
2023-05-13T02:58:39.373Z,1023.82
2023-05-13T02:59:39.364Z,1023.84
2023-05-13T03:00:39.371Z,1023.85
2023-05-13T03:01:39.449Z,1023.81
2023-05-13T03:02:39.464Z,1023.85
2023-05-13T03:03:39.451Z,1023.83
2023-05-13T03:04:39.355Z,1023.83
2023-05-13T03:05:39.367Z,1023.85
2023-05-13T03:06:39.364Z,1023.82
2023-05-13T03:07:39.361Z,1023.83
2023-05-13T03:08:39.374Z,1023.86
2023-05-13T03:09:39.366Z,1023.87
2023-05-13T03:10:39.348Z,1023.87
2023-05-13T03:11:39.364Z,1023.88
2023-05-13T03:12:39.357Z,1023.85
2023-05-13T03:13:39.371Z,1023.88
2023-05-13T03:14:39.373Z,1023.88
2023-05-13T03:15:40.158Z,1023.89
2023-05-13T03:16:39.403Z,1023.88
2023-05-13T03:17:39.396Z,1023.88
2023-05-13T03:18:39.399Z,1023.88
2023-05-13T03:19:39.364Z,1023.89
2023-05-13T03:20:39.363Z,1023.87
2023-05-13T03:21:39.366Z,1023.9
2023-05-13T03:22:39.355Z,1023.92
2023-05-13T03:23:39.413Z,1023.91
2023-05-13T03:24:39.357Z,1023.92
2023-05-13T03:25:39.376Z,1023.89
2023-05-13T03:26:39.360Z,1023.86
2023-05-13T03:27:39.365Z,1023.88
2023-05-13T03:28:39.384Z,1023.88
2023-05-13T03:29:39.368Z,1023.89
2023-05-13T03:30:39.371Z,1023.9
2023-05-13T03:31:39.444Z,1023.91
2023-05-13T03:32:39.439Z,1023.92
2023-05-13T03:33:39.377Z,1023.93
2023-05-13T03:34:39.366Z,1023.92
2023-05-13T03:35:39.377Z,1023.92
2023-05-13T03:36:39.366Z,1023.94
2023-05-13T03:37:39.371Z,1023.94
2023-05-13T03:38:39.373Z,1023.92
2023-05-13T03:39:39.351Z,1023.96
2023-05-13T03:40:39.357Z,1023.94
2023-05-13T03:41:39.367Z,1023.95
2023-05-13T03:42:39.354Z,1023.96
2023-05-13T03:43:39.385Z,1023.97
2023-05-13T03:44:39.371Z,1023.99
2023-05-13T03:45:39.369Z,1023.98
2023-05-13T03:46:39.424Z,1023.97
2023-05-13T03:47:39.439Z,1023.97
2023-05-13T03:48:39.380Z,1023.96
2023-05-13T03:49:39.400Z,1023.94
2023-05-13T03:50:39.372Z,1024.01
2023-05-13T03:51:39.367Z,1024.01
2023-05-13T03:52:39.370Z,1023.99
2023-05-13T03:53:39.386Z,1023.99
2023-05-13T03:54:39.371Z,1024.01
2023-05-13T03:55:39.361Z,1024.03
2023-05-13T03:56:39.353Z,1024.09
2023-05-13T03:57:39.357Z,1024.08
2023-05-13T03:58:39.381Z,1024.09
2023-05-13T03:59:39.375Z,1024.05
2023-05-13T04:00:39.363Z,1024.04
2023-05-13T04:01:39.390Z,1024.05
2023-05-13T04:02:39.475Z,1024.01
2023-05-13T04:03:39.392Z,1024.04
2023-05-13T04:04:39.405Z,1024.03
2023-05-13T04:05:39.374Z,1024.05
2023-05-13T04:06:39.362Z,1024.09
2023-05-13T04:07:39.364Z,1024.13
2023-05-13T04:08:39.381Z,1024.1
2023-05-13T04:09:39.367Z,1024.13
2023-05-13T04:10:39.373Z,1024.14
2023-05-13T04:11:39.366Z,1024.14
2023-05-13T04:12:39.367Z,1024.16
2023-05-13T04:13:39.381Z,1024.15
2023-05-13T04:14:39.383Z,1024.19
2023-05-13T04:15:39.366Z,1024.17
2023-05-13T04:16:39.378Z,1024.14
2023-05-13T04:17:39.385Z,1024.14
2023-05-13T04:18:39.455Z,1024.15
2023-05-13T04:19:39.354Z,1024.13
2023-05-13T04:20:39.370Z,1024.17
2023-05-13T04:21:39.366Z,1024.15
2023-05-13T04:22:39.363Z,1024.12
2023-05-13T04:23:39.385Z,1024.14
2023-05-13T04:24:39.364Z,1024.13
2023-05-13T04:25:39.382Z,1024.12
2023-05-13T04:26:39.365Z,1024.14
2023-05-13T04:27:39.365Z,1024.2
2023-05-13T04:28:39.383Z,1024.2
2023-05-13T04:29:39.376Z,1024.22
2023-05-13T04:30:39.384Z,1024.2
2023-05-13T04:31:39.567Z,1024.2
2023-05-13T04:32:39.409Z,1024.22
2023-05-13T04:33:39.391Z,1024.19
2023-05-13T04:34:39.367Z,1024.18
2023-05-13T04:35:39.359Z,1024.21
2023-05-13T04:36:39.359Z,1024.18
2023-05-13T04:37:39.380Z,1024.19
2023-05-13T04:38:39.370Z,1024.22
2023-05-13T04:39:39.357Z,1024.21
2023-05-13T04:40:39.355Z,1024.2
2023-05-13T04:41:39.349Z,1024.24
2023-05-13T04:42:39.358Z,1024.26
2023-05-13T04:43:39.379Z,1024.24
2023-05-13T04:44:39.360Z,1024.28
2023-05-13T04:45:39.368Z,1024.31
2023-05-13T04:46:39.402Z,1024.27
2023-05-13T04:47:39.372Z,1024.26
2023-05-13T04:48:39.387Z,1024.26
2023-05-13T04:49:39.363Z,1024.3
2023-05-13T04:50:39.364Z,1024.32
2023-05-13T04:51:39.370Z,1024.31
2023-05-13T04:52:39.368Z,1024.3
2023-05-13T04:53:39.387Z,1024.31
2023-05-13T04:54:39.374Z,1024.32
2023-05-13T04:55:39.360Z,1024.36
2023-05-13T04:56:39.370Z,1024.36
2023-05-13T04:57:39.366Z,1024.36
2023-05-13T04:58:39.367Z,1024.35
2023-05-13T04:59:39.366Z,1024.42
2023-05-13T05:00:39.371Z,1024.38
2023-05-13T05:01:39.433Z,1024.42
2023-05-13T05:02:39.381Z,1024.45
2023-05-13T05:03:39.392Z,1024.47
2023-05-13T05:04:39.362Z,1024.42
2023-05-13T05:05:39.361Z,1024.45
2023-05-13T05:06:39.364Z,1024.49
2023-05-13T05:07:39.371Z,1024.45
2023-05-13T05:08:39.363Z,1024.42
2023-05-13T05:09:39.382Z,1024.37
2023-05-13T05:10:39.372Z,1024.41
2023-05-13T05:11:39.371Z,1024.39
2023-05-13T05:12:39.366Z,1024.38
2023-05-13T05:13:39.377Z,1024.29
2023-05-13T05:14:39.378Z,1024.33
2023-05-13T05:15:39.373Z,1024.34
2023-05-13T05:16:39.373Z,1024.36
2023-05-13T05:17:39.457Z,1024.42
2023-05-13T05:18:39.451Z,1024.43
2023-05-13T05:19:39.355Z,1024.46
2023-05-13T05:20:39.348Z,1024.43
2023-05-13T05:21:39.360Z,1024.43
2023-05-13T05:22:39.378Z,1024.42
2023-05-13T05:23:39.373Z,1024.39
2023-05-13T05:24:39.370Z,1024.41
2023-05-13T05:25:39.372Z,1024.39
2023-05-13T05:26:41.117Z,1024.38
2023-05-13T05:27:39.386Z,1024.4
2023-05-13T05:28:39.360Z,1024.4
2023-05-13T05:29:39.357Z,1024.36
2023-05-13T05:30:39.464Z,1024.42
2023-05-13T05:31:39.423Z,1024.38
2023-05-13T05:32:39.437Z,1024.42
2023-05-13T05:33:39.362Z,1024.39
2023-05-13T05:34:39.371Z,1024.42
2023-05-13T05:35:39.360Z,1024.45
2023-05-13T05:36:39.372Z,1024.42
2023-05-13T05:37:39.389Z,1024.43
2023-05-13T05:38:39.368Z,1024.41
2023-05-13T05:39:39.362Z,1024.4
2023-05-13T05:40:39.378Z,1024.41
2023-05-13T05:41:39.364Z,1024.43
2023-05-13T05:42:39.377Z,1024.42
2023-05-13T05:43:39.363Z,1024.41
2023-05-13T05:44:39.360Z,1024.41
2023-05-13T05:45:39.387Z,1024.44
2023-05-13T05:46:39.372Z,1024.44
2023-05-13T05:47:39.428Z,1024.43
2023-05-13T05:48:39.381Z,1024.44
2023-05-13T05:49:39.370Z,1024.43
2023-05-13T05:50:39.439Z,1024.42
2023-05-13T05:51:39.359Z,1024.42
2023-05-13T05:52:39.383Z,1024.46
2023-05-13T05:53:39.366Z,1024.46
2023-05-13T05:54:39.360Z,1024.43
2023-05-13T05:55:39.381Z,1024.4
2023-05-13T05:56:39.356Z,1024.39
2023-05-13T05:57:39.378Z,1024.41
2023-05-13T05:58:39.369Z,1024.4
2023-05-13T05:59:39.360Z,1024.35
2023-05-13T06:00:39.367Z,1024.38
2023-05-13T06:01:39.382Z,1024.38
2023-05-13T06:02:39.486Z,1024.39
2023-05-13T06:03:39.477Z,1024.35
2023-05-13T06:04:39.387Z,1024.38
2023-05-13T06:05:39.382Z,1024.37
2023-05-13T06:06:39.381Z,1024.37
2023-05-13T06:07:39.374Z,1024.39
2023-05-13T06:08:39.386Z,1024.38
2023-05-13T06:09:39.357Z,1024.39
2023-05-13T06:10:39.367Z,1024.38
2023-05-13T06:11:39.396Z,1024.41
2023-05-13T06:12:39.372Z,1024.43
2023-05-13T06:13:39.382Z,1024.37
2023-05-13T06:14:39.351Z,1024.36
2023-05-13T06:15:39.441Z,1024.35
2023-05-13T06:16:39.403Z,1024.33
2023-05-13T06:17:39.422Z,1024.33
2023-05-13T06:18:39.418Z,1024.34
2023-05-13T06:19:39.363Z,1024.36
2023-05-13T06:20:39.376Z,1024.37
2023-05-13T06:21:39.361Z,1024.36
2023-05-13T06:22:39.375Z,1024.37
2023-05-13T06:23:39.366Z,1024.38
2023-05-13T06:24:39.396Z,1024.32
2023-05-13T06:25:39.353Z,1024.36
2023-05-13T06:26:39.349Z,1024.33
2023-05-13T06:27:39.365Z,1024.35
2023-05-13T06:28:39.363Z,1024.35
2023-05-13T06:29:39.368Z,1024.33
2023-05-13T06:30:39.364Z,1024.36
2023-05-13T06:31:39.433Z,1024.31
2023-05-13T06:32:42.736Z,1024.31
2023-05-13T06:33:39.413Z,1024.29
2023-05-13T06:34:39.370Z,1024.31
2023-05-13T06:35:39.379Z,1024.3
2023-05-13T06:36:39.358Z,1024.34
2023-05-13T06:37:39.399Z,1024.31
2023-05-13T06:38:39.355Z,1024.3
2023-05-13T06:39:39.365Z,1024.29
2023-05-13T06:40:39.365Z,1024.26
2023-05-13T06:41:39.369Z,1024.27
2023-05-13T06:42:39.377Z,1024.26
2023-05-13T06:43:39.354Z,1024.28
2023-05-13T06:44:39.361Z,1024.33
2023-05-13T06:45:39.371Z,1024.31
2023-05-13T06:46:39.405Z,1024.3
2023-05-13T06:47:39.423Z,1024.29
2023-05-13T06:48:39.355Z,1024.29
2023-05-13T06:49:39.364Z,1024.33
2023-05-13T06:50:39.371Z,1024.3
2023-05-13T06:51:39.348Z,1024.3
2023-05-13T06:52:41.719Z,1024.27
2023-05-13T06:53:39.378Z,1024.3
2023-05-13T06:54:39.358Z,1024.27
2023-05-13T06:55:39.360Z,1024.26
2023-05-13T06:56:39.370Z,1024.2
2023-05-13T06:57:43.099Z,1024.2
2023-05-13T06:58:39.356Z,1024.19
2023-05-13T06:59:39.361Z,1024.2
2023-05-13T07:00:39.416Z,1024.19
2023-05-13T07:01:39.414Z,1024.22
2023-05-13T07:02:39.441Z,1024.19
2023-05-13T07:03:39.392Z,1024.22
2023-05-13T07:04:39.364Z,1024.17
2023-05-13T07:05:39.370Z,1024.16
2023-05-13T07:06:39.366Z,1024.2
2023-05-13T07:07:39.370Z,1024.2
2023-05-13T07:08:39.353Z,1024.24
2023-05-13T07:09:39.357Z,1024.2
2023-05-13T07:10:39.363Z,1024.17
2023-05-13T07:11:39.354Z,1024.18
2023-05-13T07:12:39.404Z,1024.17
2023-05-13T07:13:40.079Z,1024.17
2023-05-13T07:14:39.361Z,1024.18
2023-05-13T07:15:39.367Z,1024.16
2023-05-13T07:16:39.406Z,1024.16
2023-05-13T07:17:39.474Z,1024.1
2023-05-13T07:18:39.352Z,1024.1
2023-05-13T07:19:39.356Z,1024.1
2023-05-13T07:20:39.364Z,1024.12
2023-05-13T07:21:39.401Z,1024.12
2023-05-13T07:22:39.532Z,1024.12
2023-05-13T07:23:39.356Z,1024.14
2023-05-13T07:24:39.361Z,1024.13
2023-05-13T07:25:39.386Z,1024.16
2023-05-13T07:26:39.349Z,1024.12
2023-05-13T07:27:39.367Z,1024.1
2023-05-13T07:28:39.359Z,1024.1
2023-05-13T07:29:39.389Z,1024.06
2023-05-13T07:30:39.372Z,1024.05
2023-05-13T07:31:39.384Z,1024.07
2023-05-13T07:32:39.505Z,1024.06
2023-05-13T07:33:39.378Z,1024.05
2023-05-13T07:34:39.364Z,1024.03
2023-05-13T07:35:39.373Z,1024.04
2023-05-13T07:36:39.363Z,1023.99
2023-05-13T07:37:39.373Z,1024
2023-05-13T07:38:39.361Z,1023.98
2023-05-13T07:39:39.357Z,1024
2023-05-13T07:40:39.355Z,1023.98
2023-05-13T07:41:39.364Z,1023.96
2023-05-13T07:42:39.356Z,1023.96
2023-05-13T07:43:39.370Z,1023.99
2023-05-13T07:44:39.371Z,1024.04
2023-05-13T07:45:39.382Z,1023.99
2023-05-13T07:46:39.412Z,1023.98
2023-05-13T07:47:39.376Z,1023.98
2023-05-13T07:48:39.367Z,1023.99
2023-05-13T07:49:39.361Z,1023.93
2023-05-13T07:50:39.378Z,1024
2023-05-13T07:51:39.362Z,1023.96
2023-05-13T07:52:39.358Z,1023.93
2023-05-13T07:53:39.369Z,1023.95
2023-05-13T07:54:39.357Z,1023.97
2023-05-13T07:55:39.377Z,1023.96
2023-05-13T07:56:39.378Z,1023.97
2023-05-13T07:57:39.368Z,1023.94
2023-05-13T07:58:39.359Z,1023.96
2023-05-13T07:59:39.363Z,1023.95
2023-05-13T08:00:39.370Z,1024
2023-05-13T08:01:39.386Z,1023.99
2023-05-13T08:02:39.546Z,1024
2023-05-13T08:03:39.555Z,1023.97
2023-05-13T08:04:39.437Z,1023.99
2023-05-13T08:05:39.367Z,1023.98
2023-05-13T08:06:40.172Z,1024.04
2023-05-13T08:07:39.384Z,1023.99
2023-05-13T08:08:39.345Z,1024.04
2023-05-13T08:09:39.366Z,1024.05
2023-05-13T08:10:39.376Z,1024.06
2023-05-13T08:11:39.361Z,1024.07
2023-05-13T08:12:39.369Z,1024.05
2023-05-13T08:13:39.430Z,1024.07
2023-05-13T08:14:39.370Z,1024.04
2023-05-13T08:15:39.366Z,1024.04
2023-05-13T08:16:39.478Z,1024.04
2023-05-13T08:17:39.407Z,1023.99
2023-05-13T08:18:39.389Z,1023.97
2023-05-13T08:19:39.355Z,1023.97
2023-05-13T08:20:39.379Z,1023.99
2023-05-13T08:21:39.361Z,1024
2023-05-13T08:22:39.374Z,1024
2023-05-13T08:23:45.434Z,1023.99
2023-05-13T08:24:39.358Z,1023.98
2023-05-13T08:25:39.379Z,1023.96
2023-05-13T08:26:39.364Z,1024.01
2023-05-13T08:27:39.353Z,1024.03
2023-05-13T08:28:39.395Z,1024.03
2023-05-13T08:29:39.373Z,1024.03
2023-05-13T08:30:39.366Z,1024.08
2023-05-13T08:31:39.439Z,1024.09
2023-05-13T08:32:39.383Z,1024.09
2023-05-13T08:33:39.358Z,1024.09
2023-05-13T08:34:39.366Z,1024.06
2023-05-13T08:35:39.374Z,1024.05
2023-05-13T08:36:39.365Z,1024.06
2023-05-13T08:37:39.359Z,1024
2023-05-13T08:38:39.373Z,1024.03
2023-05-13T08:39:39.369Z,1024.03
2023-05-13T08:40:39.354Z,1023.98
2023-05-13T08:41:39.365Z,1023.99
2023-05-13T08:42:39.365Z,1024
2023-05-13T08:43:39.368Z,1024
2023-05-13T08:44:39.356Z,1023.99
2023-05-13T08:45:39.408Z,1023.97
2023-05-13T08:46:39.482Z,1023.98
2023-05-13T08:47:39.364Z,1023.96
2023-05-13T08:48:39.365Z,1023.99
2023-05-13T08:49:39.368Z,1023.97
2023-05-13T08:50:39.368Z,1024.06
2023-05-13T08:51:39.368Z,1023.99
2023-05-13T08:52:39.398Z,1023.99
2023-05-13T08:53:39.380Z,1023.97
2023-05-13T08:54:39.363Z,1024.04
2023-05-13T08:55:39.380Z,1023.99
2023-05-13T08:56:39.367Z,1024.03
2023-05-13T08:57:39.368Z,1024.03
2023-05-13T08:58:39.365Z,1024.01
2023-05-13T08:59:39.363Z,1024.04
2023-05-13T09:00:39.377Z,1024.04
2023-05-13T09:01:39.446Z,1024.03
2023-05-13T09:02:39.440Z,1024.06
2023-05-13T09:03:39.364Z,1024.04
2023-05-13T09:04:39.381Z,1024.05
2023-05-13T09:05:39.376Z,1024.07
2023-05-13T09:06:39.391Z,1024.04
2023-05-13T09:07:39.384Z,1024.01
2023-05-13T09:08:39.367Z,1024.08
2023-05-13T09:09:39.367Z,1024.05
2023-05-13T09:10:39.366Z,1024.1
2023-05-13T09:11:39.374Z,1024.11
2023-05-13T09:12:39.365Z,1024.08
2023-05-13T09:13:39.372Z,1024.11
2023-05-13T09:14:39.367Z,1024.06
2023-05-13T09:15:39.394Z,1024.11
2023-05-13T09:16:39.379Z,1024.1
2023-05-13T09:17:39.460Z,1024.03
2023-05-13T09:18:39.574Z,1024.03
2023-05-13T09:19:39.553Z,1024.05
2023-05-13T09:20:39.382Z,1024.07
2023-05-13T09:21:39.379Z,1024.05
2023-05-13T09:22:39.347Z,1024.1
2023-05-13T09:23:39.376Z,1024.12
2023-05-13T09:24:39.364Z,1024.15
2023-05-13T09:25:39.373Z,1024.1
2023-05-13T09:26:39.402Z,1024.12
2023-05-13T09:27:39.364Z,1024.07
2023-05-13T09:28:39.362Z,1024.07
2023-05-13T09:29:39.361Z,1024.1
2023-05-13T09:30:39.380Z,1024.1
2023-05-13T09:31:39.468Z,1024.11
2023-05-13T09:32:39.403Z,1024.14
2023-05-13T09:33:39.352Z,1024.11
2023-05-13T09:34:39.379Z,1024.2
2023-05-13T09:35:39.377Z,1024.11
2023-05-13T09:36:39.372Z,1024.2
2023-05-13T09:37:39.366Z,1024.22
2023-05-13T09:38:39.350Z,1024.23
2023-05-13T09:39:39.353Z,1024.29
2023-05-13T09:40:39.360Z,1024.17
2023-05-13T09:41:39.352Z,1024.21
2023-05-13T09:42:39.359Z,1024.13
2023-05-13T09:43:39.355Z,1024.23
2023-05-13T09:44:39.370Z,1024.14
2023-05-13T09:45:39.379Z,1024.2
2023-05-13T09:46:39.401Z,1024.31
2023-05-13T09:47:39.390Z,1024.19
2023-05-13T09:48:39.360Z,1024.17
2023-05-13T09:49:39.370Z,1024.21
2023-05-13T09:50:39.356Z,1024.24
2023-05-13T09:51:39.354Z,1024.3
2023-05-13T09:52:39.365Z,1024.23
2023-05-13T09:53:39.413Z,1024.2
2023-05-13T09:54:39.363Z,1024.26
2023-05-13T09:55:39.364Z,1024.22
2023-05-13T09:56:39.366Z,1024.29
2023-05-13T09:57:39.360Z,1024.26
2023-05-13T09:58:39.373Z,1024.33
2023-05-13T09:59:39.360Z,1024.27
2023-05-13T10:00:39.580Z,1024.33
2023-05-13T10:01:39.454Z,1024.2
2023-05-13T10:02:39.423Z,1024.21
2023-05-13T10:03:39.420Z,1024.31
2023-05-13T10:04:39.360Z,1024.22
2023-05-13T10:05:39.371Z,1024.33
2023-05-13T10:06:39.372Z,1024.29
2023-05-13T10:07:39.374Z,1024.31
2023-05-13T10:08:39.368Z,1024.34
2023-05-13T10:09:39.366Z,1024.35
2023-05-13T10:10:39.361Z,1024.36
2023-05-13T10:11:39.388Z,1024.4
2023-05-13T10:12:39.373Z,1024.32
2023-05-13T10:13:39.368Z,1024.47
2023-05-13T10:14:39.368Z,1024.42
2023-05-13T10:15:39.362Z,1024.35
2023-05-13T10:16:39.441Z,1024.39
2023-05-13T10:17:39.419Z,1024.42
2023-05-13T10:18:39.458Z,1024.38
2023-05-13T10:19:39.353Z,1024.45
2023-05-13T10:20:39.359Z,1024.51
2023-05-13T10:21:44.652Z,1024.44
2023-05-13T10:22:43.649Z,1024.49
2023-05-13T10:23:43.597Z,1024.45
2023-05-13T10:24:43.594Z,1024.53
2023-05-13T10:25:43.605Z,1024.45
2023-05-13T10:26:43.614Z,1024.53
2023-05-13T10:27:43.589Z,1024.45
2023-05-13T10:28:43.595Z,1024.45
2023-05-13T10:29:43.590Z,1024.45
2023-05-13T10:30:43.598Z,1024.42
2023-05-13T10:31:43.661Z,1024.43
2023-05-13T10:32:43.594Z,1024.52
2023-05-13T10:33:43.589Z,1024.46
2023-05-13T10:34:43.595Z,1024.47
2023-05-13T10:35:43.591Z,1024.46
2023-05-13T10:36:43.594Z,1024.55
2023-05-13T10:37:43.591Z,1024.47
2023-05-13T10:38:43.589Z,1024.45
2023-05-13T10:39:43.589Z,1024.49
2023-05-13T10:40:43.597Z,1024.63
2023-05-13T10:41:43.584Z,1024.54
2023-05-13T10:42:43.575Z,1024.53
2023-05-13T10:43:43.573Z,1024.57
2023-05-13T10:44:43.594Z,1024.46
2023-05-13T10:45:43.593Z,1024.44
2023-05-13T10:46:43.712Z,1024.5
2023-05-13T10:47:43.671Z,1024.44
2023-05-13T10:48:43.834Z,1024.51
2023-05-13T10:49:43.593Z,1024.53
2023-05-13T10:50:43.583Z,1024.56
2023-05-13T10:51:43.577Z,1024.59
2023-05-13T10:52:43.578Z,1024.56
2023-05-13T10:53:43.596Z,1024.6
2023-05-13T10:54:43.589Z,1024.6
2023-05-13T10:55:43.575Z,1024.58
2023-05-13T10:56:43.577Z,1024.6
2023-05-13T10:57:43.594Z,1024.59
2023-05-13T10:58:43.595Z,1024.58
2023-05-13T10:59:43.583Z,1024.65
2023-05-13T11:00:43.671Z,1024.6
2023-05-13T11:01:44.039Z,1024.56
2023-05-13T11:02:43.659Z,1024.59
2023-05-13T11:03:43.769Z,1024.61
2023-05-13T11:04:43.580Z,1024.63
2023-05-13T11:05:43.591Z,1024.59
2023-05-13T11:06:43.571Z,1024.67
2023-05-13T11:07:43.575Z,1024.64
2023-05-13T11:08:43.581Z,1024.73
2023-05-13T11:09:43.572Z,1024.68
2023-05-13T11:10:43.590Z,1024.7
2023-05-13T11:11:43.581Z,1024.68
2023-05-13T11:12:43.592Z,1024.64
2023-05-13T11:13:43.603Z,1024.61
2023-05-13T11:14:43.572Z,1024.7
2023-05-13T11:15:43.650Z,1024.71
2023-05-13T11:16:43.677Z,1024.75
2023-05-13T11:17:43.645Z,1024.7
2023-05-13T11:18:43.629Z,1024.82
2023-05-13T11:19:43.581Z,1024.77
2023-05-13T11:20:52.328Z,1024.71
2023-05-13T11:21:43.580Z,1024.76
2023-05-13T11:22:43.585Z,1024.66
2023-05-13T11:23:43.587Z,1024.7
2023-05-13T11:24:43.586Z,1024.67
2023-05-13T11:25:43.588Z,1024.76
2023-05-13T11:26:43.593Z,1024.71
2023-05-13T11:27:43.587Z,1024.73
2023-05-13T11:28:43.584Z,1024.73
2023-05-13T11:29:43.589Z,1024.75
2023-05-13T11:30:43.586Z,1024.82
2023-05-13T11:31:43.891Z,1024.78
2023-05-13T11:32:43.598Z,1024.77
2023-05-13T11:33:43.578Z,1024.81
2023-05-13T11:34:43.575Z,1024.81
2023-05-13T11:35:43.581Z,1024.8
2023-05-13T11:36:43.588Z,1024.87
2023-05-13T11:37:43.577Z,1024.79
2023-05-13T11:38:43.580Z,1024.8
2023-05-13T11:39:43.590Z,1024.84
2023-05-13T11:40:43.580Z,1024.89
2023-05-13T11:41:43.593Z,1024.86
2023-05-13T11:42:43.583Z,1024.9
2023-05-13T11:43:43.574Z,1024.83
2023-05-13T11:44:43.575Z,1024.89
2023-05-13T11:45:43.622Z,1024.84
2023-05-13T11:46:43.591Z,1024.82
2023-05-13T11:47:43.669Z,1024.87
2023-05-13T11:48:43.581Z,1024.83
2023-05-13T11:49:43.574Z,1024.81
2023-05-13T11:50:43.578Z,1024.79
2023-05-13T11:51:43.580Z,1024.84
2023-05-13T11:52:43.599Z,1024.9
2023-05-13T11:53:43.585Z,1024.86
2023-05-13T11:54:43.611Z,1024.77
2023-05-13T11:55:43.580Z,1024.9
2023-05-13T11:56:43.574Z,1024.84
2023-05-13T11:57:43.568Z,1024.81
2023-05-13T11:58:43.578Z,1024.82
2023-05-13T11:59:48.152Z,1024.85
2023-05-13T12:00:46.350Z,1024.86
2023-05-13T12:01:43.622Z,1024.83
2023-05-13T12:02:43.726Z,1024.85
2023-05-13T12:03:43.587Z,1024.88
2023-05-13T12:04:43.645Z,1024.78
2023-05-13T12:05:43.616Z,1024.83
2023-05-13T12:06:43.582Z,1024.87
2023-05-13T12:07:43.594Z,1024.86
2023-05-13T12:08:43.579Z,1024.87
2023-05-13T12:09:43.593Z,1024.87